FABL

Details ICAO FABL (BFN)
Name Bloemfontein
Region South Africa
Timezone Africa/Johannesburg (UTC+2.0)
Plans Departing 43
Arriving 68
Stats Elevation 4,458 ft / 1,359 m (AMSL)
Location -29.092556° 26.299422°
Runways 2
Magnetic Variation 22.523° W
Sunrise 2018-06-25 05:10:02 UTC / 2018-06-25 07:10:02 Local
Sunset 2018-06-25 15:27:09 UTC / 2018-06-25 17:27:09 Local
Advertisement - Login to hide

Runways

ID Width Length Bearing (true) Bearing (mag) Surface Threshold Offset Overrun Length
02 151 ft / 46 m 8,404 ft / 2,562 m 0.00° 22.52° Asphalt 0 ft / 0 m 0 ft / 0 m
12 151 ft / 46 m 7,207 ft / 2,197 m 101.01° 123.53° Asphalt 0 ft / 0 m 0 ft / 0 m
20 151 ft / 46 m 8,404 ft / 2,562 m 180.00° 202.52° Asphalt 0 ft / 0 m 0 ft / 0 m
30 151 ft / 46 m 7,207 ft / 2,197 m 280.99° 303.51° Asphalt 0 ft / 0 m 0 ft / 0 m

Map

Weather


0- 5 10 15 20 25 30 35+ Temperature / ° C

Clouds and Precipitation
Forecast for 2018-06-25 12:00 UTC. Updated 40 minutes ago

Ground ~20,000 ft ~40,000 ft Winds

METAR

FABL 251000Z 01005KT 290V060 CAVOK 18/M03 Q1026 NOSIG

TAF

TAF FABL 251000Z 2510/2610 30008KT CAVOK TX21/2512Z TNM01/2603Z

Frequencies

Recorded 126.65 MHz ATIS
Approach 124.30 MHz APP
Tower 118.10 MHz TWR
Warning: Do not use this data for real-world aviation or navigation. No guarantee of current accuracy is given.